SALT Weather Reports


Display with metric or nautical units.
time (UTC)temp
F
wind
direction
speed
MPH
gust
MPH
rain 1hr
in
rain 24hr
in
rain mn
in
humidity
%
barometer
mb
20180717114552 64 278 3.0 0.0 0.00 0.00 0.00 37 1007.9
20180717113547 64 278 3.0 0.0 0.00 0.00 0.00 37 1007.9
20180717111543 63 278 1.0 0.0 0.00 0.00 0.00 39 1007.9
20180717110541 64 278 2.0 0.0 0.00 0.00 0.00 38 1007.9
20180717104536 62 278 2.0 0.0 0.00 0.00 0.00 38 1008.1
20180717103530 62 278 1.0 0.0 0.00 0.00 0.00 38 1008.0
20180717102527 62 278 0.0 0.0 0.00 0.00 0.00 38 1008.0
20180717101525 62 278 1.0 0.0 0.00 0.00 0.00 38 1007.9
20180717100523 63 278 2.0 0.0 0.00 0.00 0.00 37 1007.8
20180717095520 62 278 2.0 0.0 0.00 0.00 0.00 37 1007.7
20180717094517 62 278 0.0 0.0 0.00 0.00 0.00 38 1007.8
20180717093512 62 278 2.0 0.0 0.00 0.00 0.00 37 1007.7
20180717092510 64 278 3.0 0.0 0.00 0.00 0.00 36 1007.6
20180717091507 63 278 3.0 0.0 0.00 0.00 0.00 35 1007.5
20180717090504 63 284 3.0 0.0 0.00 0.00 0.00 37 1007.5
20180717085502 62 284 2.0 0.0 0.00 0.00 0.00 38 1007.4
20180717084459 62 284 2.0 0.0 0.00 0.00 0.00 39 1007.5
20180717083455 62 284 1.0 0.0 0.00 0.00 0.00 40 1007.5
20180717082452 62 284 2.0 0.0 0.00 0.00 0.00 40 1007.6
20180717081449 62 284 1.0 0.0 0.00 0.00 0.00 40 1007.5
20180717080446 61 284 1.0 0.0 0.00 0.00 0.00 41 1007.4
20180717075444 62 284 1.0 0.0 0.00 0.00 0.00 42 1007.4
20180717074441 62 284 2.0 0.0 0.00 0.00 0.00 40 1007.5
20180717073437 62 284 1.0 0.0 0.00 0.00 0.00 40 1007.6
20180717072435 62 284 0.0 0.0 0.00 0.00 0.00 40 1007.7
20180717071431 62 284 1.0 0.0 0.00 0.00 0.00 40 1007.7
20180717070429 62 284 2.0 0.0 0.00 0.00 0.00 41 1007.6
20180717065426 61 284 2.0 0.0 0.00 0.00 0.00 42 1007.7
20180717064424 62 284 2.0 0.0 0.00 0.00 0.00 40 1007.6
20180717063419 63 284 2.0 0.0 0.00 0.00 0.00 39 1007.7
20180717062416 64 284 2.0 0.0 0.00 0.00 0.00 37 1007.7
20180717061414 64 284 3.0 0.0 0.00 0.00 0.00 37 1007.7
20180717060411 64 285 3.0 0.0 0.00 0.00 0.00 38 1007.8
20180717055408 63 285 2.0 0.0 0.00 0.00 0.00 40 1007.9
20180717054406 64 285 2.0 0.0 0.00 0.00 0.00 37 1007.9
20180717053401 64 285 2.0 0.0 0.00 0.00 0.00 38 1007.9
20180717052358 64 275 3.0 0.0 0.00 0.00 0.00 38 1007.8
20180717051356 64 283 2.0 0.0 0.00 0.00 0.00 38 1007.9
20180717050353 64 330 1.0 0.0 0.00 0.00 0.00 39 1008.0
20180717045351 65 330 1.0 0.0 0.00 0.00 0.00 38 1007.9
20180717044347 65 330 1.0 0.0 0.00 0.00 0.00 39 1007.8
20180717043342 65 273 2.0 0.0 0.00 0.00 0.00 40 1007.7
20180717042340 65 274 2.0 0.0 0.00 0.00 0.00 40 1007.6
20180717041337 65 307 2.0 0.0 0.00 0.00 0.00 41 1007.6
20180717040335 66 308 3.0 0.0 0.00 0.00 0.00 41 1007.5
20180717035332 66 319 4.0 0.0 0.00 0.00 0.00 42 1007.5
20180717034329 66 303 4.0 0.0 0.00 0.00 0.00 42 1007.4
20180717033325 66 301 3.0 0.0 0.00 0.00 0.00 42 1007.3
20180717032323 66 312 3.0 0.0 0.00 0.00 0.00 43 1007.3
20180717031321 66 299 3.0 0.0 0.00 0.00 0.00 43 1007.2
20180717030317 66 302 3.0 0.0 0.00 0.00 0.00 45 1007.0
20180717025314 67 291 3.0 0.0 0.00 0.00 0.00 42 1007.0
20180717024312 69 291 4.0 0.0 0.00 0.00 0.00 41 1006.9
20180717022304 71 290 4.0 0.0 0.00 0.00 0.00 37 1006.8
20180717021302 72 323 4.0 0.0 0.00 0.00 0.00 36 1006.7
20180717020259 72 327 5.0 0.0 0.00 0.00 0.00 35 1006.6
20180717015257 73 311 6.0 0.0 0.00 0.00 0.00 32 1006.7
20180717014254 73 301 6.0 0.0 0.00 0.00 0.00 30 1006.7
20180717013249 73 301 7.0 0.0 0.00 0.00 0.00 29 1006.5
20180717012247 72 286 4.0 0.0 0.00 0.00 0.00 29 1006.5
20180717011244 69 258 3.0 0.0 0.00 0.00 0.00 32 1006.5
20180717010241 68 73 6.0 0.0 0.00 0.00 0.00 34 1006.6
20180717005240 67 131 12.0 0.0 0.00 0.00 0.00 39 1006.7
20180717004236 69 176 15.0 0.0 0.00 0.00 0.00 34 1007.2
20180717003231 71 216 13.0 0.0 0.00 0.00 0.00 29 1007.2
20180717002229 72 197 13.0 0.0 0.00 0.00 0.00 26 1007.1
20180717001227 71 236 8.0 0.0 0.00 0.00 0.00 27 1006.9
20180717000224 71 291 6.0 0.0 0.00 0.00 0.00 36 1006.9
20180716235221 71 310 8.0 0.0 0.00 0.00 0.00 37 1006.9
20180716234219 71 294 7.0 0.0 0.00 0.00 0.00 36 1006.9
20180716233214 72 313 8.0 0.0 0.00 0.00 0.00 33 1007.0
20180716232212 73 295 8.0 0.0 0.00 0.00 0.00 32 1007.0
20180716231208 74 259 7.0 0.0 0.00 0.00 0.00 31 1007.0
20180716230206 74 294 7.0 0.0 0.00 0.00 0.00 31 1007.0
20180716225203 74 326 7.0 0.0 0.00 0.00 0.00 32 1007.2
20180716224201 75 329 8.0 0.0 0.00 0.00 0.00 32 1007.2
20180716223156 74 316 8.0 0.0 0.00 0.00 0.00 31 1007.3
20180716222153 75 312 6.0 0.0 0.00 0.00 0.00 31 1007.4
20180716221151 74 293 7.0 0.0 0.00 0.00 0.00 31 1007.5
20180716220148 74 308 7.0 0.0 0.00 0.00 0.00 32 1007.6
20180716215146 73 303 6.0 0.0 0.00 0.00 0.00 33 1007.6
20180716214143 73 332 8.0 0.0 0.00 0.00 0.00 35 1007.8
20180716213138 73 359 8.0 0.0 0.00 0.00 0.00 36 1007.9
20180716212136 73 266 7.0 0.0 0.00 0.00 0.00 33 1008.1
20180716211133 73 317 7.0 0.0 0.00 0.00 0.00 33 1008.1
20180716210131 72 330 7.0 0.0 0.00 0.00 0.00 36 1008.2
20180716205129 73 315 8.0 0.0 0.00 0.00 0.00 34 1008.2
20180716204125 74 291 8.0 0.0 0.00 0.00 0.00 35 1008.3
20180716203121 74 311 7.0 0.0 0.00 0.00 0.00 33 1008.3
20180716202119 73 319 7.0 0.0 0.00 0.00 0.00 34 1008.3
20180716201115 72 312 9.0 0.0 0.00 0.00 0.00 36 1008.3
20180716200113 74 291 8.0 0.0 0.00 0.00 0.00 33 1008.4
20180716195110 73 274 7.0 0.0 0.00 0.00 0.00 33 1008.4
20180716194107 73 321 7.0 0.0 0.00 0.00 0.00 33 1008.5
20180716193102 72 323 7.0 0.0 0.00 0.00 0.00 33 1008.5
20180716192101 72 343 7.0 0.0 0.00 0.00 0.00 31 1008.6
20180716191057 72 305 7.0 0.0 0.00 0.00 0.00 32 1008.7
20180716190055 71 325 8.0 0.0 0.00 0.00 0.00 34 1008.8
20180716185052 71 347 8.0 0.0 0.00 0.00 0.00 34 1008.7
20180716184049 71 359 7.0 0.0 0.00 0.00 0.00 35 1008.5
20180716183044 70 314 9.0 0.0 0.00 0.00 0.00 32 1008.6
20180716182042 71 323 9.0 0.0 0.00 0.00 0.00 33 1008.7
20180716181039 70 13 9.0 0.0 0.00 0.00 0.00 32 1008.6
20180716180036 70 318 8.0 0.0 0.00 0.00 0.00 31 1008.6
20180716175034 70 303 9.0 0.0 0.00 0.00 0.00 35 1008.6
20180716174031 70 309 8.0 0.0 0.00 0.00 0.00 35 1008.5
20180716173028 69 331 7.0 0.0 0.00 0.00 0.00 37 1008.5
20180716172025 68 4 7.0 0.0 0.00 0.00 0.00 41 1008.5
20180716171021 68 308 7.0 0.0 0.00 0.00 0.00 40 1008.5
20180716170019 67 337 7.0 0.0 0.00 0.00 0.00 40 1008.4
20180716165016 66 318 6.0 0.0 0.00 0.00 0.00 43 1008.3
20180716164013 66 328 5.0 0.0 0.00 0.00 0.00 46 1008.3
20180716163009 66 322 5.0 0.0 0.00 0.00 0.00 44 1008.3
20180716162006 65 321 5.0 0.0 0.00 0.00 0.00 47 1008.2
20180716161004 64 329 4.0 0.0 0.00 0.00 0.00 51 1008.2
20180716160001 65 320 3.0 0.0 0.00 0.00 0.00 49 1008.3
20180716154959 65 320 4.0 0.0 0.00 0.00 0.00 45 1008.2
20180716153956 65 320 3.0 0.0 0.00 0.00 0.00 45 1008.1
20180716152951 66 320 2.0 0.0 0.00 0.00 0.00 44 1008.1
20180716151949 66 320 2.0 0.0 0.00 0.00 0.00 36 1008.0
20180716150946 65 320 2.0 0.0 0.00 0.00 0.00 42 1008.0
20180716145943 64 320 2.0 0.0 0.00 0.00 0.00 44 1008.1
20180716144941 63 320 2.0 0.0 0.00 0.00 0.00 44 1008.0
20180716143938 62 320 1.0 0.0 0.00 0.00 0.00 49 1008.0
20180716142933 62 320 1.0 0.0 0.00 0.00 0.00 49 1008.1
20180716141931 62 320 1.0 0.0 0.00 0.00 0.00 46 1008.1
20180716140928 62 320 1.0 0.0 0.00 0.00 0.00 42 1008.0
20180716135925 62 320 1.0 0.0 0.00 0.00 0.00 45 1008.1
20180716134923 62 320 2.0 0.0 0.00 0.00 0.00 46 1007.9
20180716133921 62 320 0.0 0.0 0.00 0.00 0.00 42 1008.0
20180716131913 63 320 3.0 0.0 0.00 0.00 0.00 40 1007.8
20180716130910 63 308 2.0 0.0 0.00 0.00 0.00 40 1007.8
20180716125908 64 308 3.0 0.0 0.00 0.00 0.00 36 1007.8
20180716124905 64 306 2.0 0.0 0.00 0.00 0.00 33 1007.8
20180716123902 63 305 2.0 0.0 0.00 0.00 0.00 35 1007.7
20180716122858 63 305 2.0 0.0 0.00 0.00 0.00 34 1007.6
20180716121855 63 305 2.0 0.0 0.00 0.00 0.00 35 1007.6
20180716120852 63 305 2.0 0.0 0.00 0.00 0.00 34 1007.6